createdAt,value
2023-02-14T04:45:24.984Z,646.45
2023-02-14T04:47:51.659Z,648.05
2023-02-14T04:50:18.552Z,644.33
2023-02-14T04:52:45.180Z,644.28
2023-02-14T04:55:11.924Z,639.20
2023-02-14T04:57:38.639Z,635.88
2023-02-14T05:00:06.043Z,648.55
2023-02-14T05:02:32.673Z,649.88
2023-02-14T05:04:59.299Z,643.45
2023-02-14T05:07:26.086Z,648.42
2023-02-14T05:09:52.721Z,649.27
2023-02-14T05:12:19.445Z,642.17
2023-02-14T05:14:46.710Z,649.05
2023-02-14T05:17:13.343Z,641.42
2023-02-14T05:19:40.006Z,642.20
2023-02-14T05:22:06.697Z,649.53
2023-02-14T05:24:33.426Z,647.70
2023-02-14T05:27:00.099Z,652.08
2023-02-14T05:29:26.853Z,647.72
2023-02-14T05:31:53.791Z,643.08
2023-02-14T05:34:21.813Z,646.45
2023-02-14T05:36:48.690Z,650.30
2023-02-14T05:39:15.449Z,643.30
2023-02-14T05:41:42.161Z,650.75
2023-02-14T05:44:08.866Z,652.53
2023-02-14T05:46:35.471Z,661.38
2023-02-14T05:49:02.175Z,656.35
2023-02-14T05:51:28.791Z,646.90
2023-02-14T05:53:55.379Z,640.63
2023-02-14T05:56:21.979Z,646.57
2023-02-14T05:58:48.576Z,647.20
2023-02-14T06:01:15.235Z,649.92
2023-02-14T06:03:41.815Z,643.60
2023-02-14T06:06:08.437Z,648.47
2023-02-14T06:08:35.098Z,653.20
2023-02-14T06:11:02.014Z,654.65
2023-02-14T06:13:28.932Z,654.70
2023-02-14T06:15:55.540Z,647.85
2023-02-14T06:18:22.194Z,652.75
2023-02-14T06:20:48.909Z,651.83
2023-02-14T06:23:15.549Z,647.85
2023-02-14T06:25:42.301Z,652.05
2023-02-14T06:28:08.916Z,648.92
2023-02-14T06:30:35.669Z,643.83
2023-02-14T06:33:02.399Z,648.83
2023-02-14T06:35:29.089Z,647.60
2023-02-14T06:37:55.741Z,651.72
2023-02-14T06:40:22.563Z,649.70
2023-02-14T06:42:49.311Z,650.42
2023-02-14T06:45:16.050Z,654.65
2023-02-14T06:47:42.771Z,653.30
2023-02-14T06:50:11.635Z,651.63
2023-02-14T06:52:38.563Z,651.80
2023-02-14T06:55:05.627Z,654.00
2023-02-14T06:57:32.332Z,655.43
2023-02-14T06:59:59.035Z,652.83
2023-02-14T07:02:25.753Z,647.75
2023-02-14T07:04:52.502Z,641.08
2023-02-14T07:07:19.248Z,639.70
2023-02-14T07:09:45.901Z,642.05
2023-02-14T07:12:12.509Z,638.35
2023-02-14T07:14:39.141Z,641.22
2023-02-14T07:17:05.808Z,640.17
2023-02-14T07:19:32.398Z,638.28
2023-02-14T07:21:59.052Z,639.20
2023-02-14T07:24:26.819Z,639.00
2023-02-14T07:26:53.456Z,643.45
2023-02-14T07:29:20.119Z,642.45
2023-02-14T07:31:46.874Z,640.83
2023-02-14T07:34:13.658Z,638.17
2023-02-14T07:36:40.505Z,639.65
2023-02-14T07:39:07.412Z,643.00
2023-02-14T07:41:34.140Z,641.67
2023-02-14T07:44:00.766Z,636.47
2023-02-14T07:46:27.523Z,642.97
2023-02-14T07:48:54.197Z,639.65
2023-02-14T07:51:20.885Z,639.65
2023-02-14T07:53:47.509Z,641.45
2023-02-14T07:56:14.214Z,642.83
2023-02-14T07:58:40.979Z,642.67
2023-02-14T08:01:07.880Z,643.42
2023-02-14T08:03:34.537Z,643.35
2023-02-14T08:06:01.220Z,650.00
2023-02-14T08:08:29.828Z,648.63
2023-02-14T08:10:57.012Z,646.55
2023-02-14T08:13:23.736Z,646.28
2023-02-14T08:16:05.545Z,639.63
2023-02-14T08:18:36.158Z,642.22
2023-02-14T08:21:04.694Z,640.72
2023-02-14T08:23:31.450Z,640.17
2023-02-14T08:25:58.468Z,641.22
2023-02-14T08:28:25.985Z,641.63
2023-02-14T08:30:53.646Z,649.58
2023-02-14T08:33:21.208Z,643.90
2023-02-14T08:35:48.353Z,646.42
2023-02-14T08:38:15.195Z,644.58
2023-02-14T08:40:42.112Z,646.28
2023-02-14T08:43:09.425Z,642.23
2023-02-14T08:45:36.396Z,650.57
2023-02-14T08:48:05.324Z,652.17
2023-02-14T08:50:32.485Z,651.33
2023-02-14T08:52:59.333Z,652.40
2023-02-14T08:55:27.475Z,652.65
2023-02-14T08:57:57.995Z,648.28
2023-02-14T09:00:24.796Z,647.53
2023-02-14T09:02:52.667Z,648.08
2023-02-14T09:05:21.153Z,647.25
2023-02-14T09:07:47.904Z,649.08
2023-02-14T09:10:14.578Z,648.20
2023-02-14T09:12:42.056Z,646.95
2023-02-14T09:15:10.149Z,640.05
2023-02-14T09:17:37.601Z,641.25
2023-02-14T09:20:06.940Z,644.78
2023-02-14T09:22:34.584Z,642.65
2023-02-14T09:25:01.463Z,639.05
2023-02-14T09:27:28.568Z,644.97
2023-02-14T09:29:55.304Z,645.35
2023-02-14T09:32:22.072Z,641.70
2023-02-14T09:34:48.697Z,639.87
2023-02-14T09:37:33.794Z,646.20
2023-02-14T09:40:00.433Z,650.03
2023-02-14T09:42:38.982Z,644.58
2023-02-14T09:45:15.796Z,646.67
2023-02-14T09:47:54.396Z,640.05
2023-02-14T09:50:42.015Z,639.90
2023-02-14T09:53:16.518Z,639.35
2023-02-14T09:56:01.310Z,639.20
2023-02-14T09:58:36.785Z,639.83
2023-02-14T10:01:13.463Z,634.28
2023-02-14T10:04:04.147Z,637.05
2023-02-14T10:06:46.392Z,635.63
2023-02-14T10:09:16.020Z,632.03
2023-02-14T10:11:46.118Z,637.55
2023-02-14T10:14:18.704Z,639.92
2023-02-14T10:17:04.016Z,639.72
2023-02-14T10:19:43.234Z,644.05
2023-02-14T10:22:15.212Z,648.13
2023-02-14T10:24:49.258Z,641.60
2023-02-14T10:27:40.285Z,643.43
2023-02-14T10:30:21.589Z,646.15
2023-02-14T10:33:18.544Z,639.85
2023-02-14T10:35:58.668Z,647.78
2023-02-14T10:38:40.765Z,642.28
2023-02-14T10:41:10.431Z,651.03
2023-02-14T10:43:53.392Z,649.90
2023-02-14T10:46:34.704Z,655.70
2023-02-14T10:49:25.756Z,644.50
2023-02-14T10:52:29.274Z,654.47
2023-02-14T10:54:59.474Z,650.37
2023-02-14T10:57:37.173Z,652.25
2023-02-14T11:00:23.405Z,643.38
2023-02-14T11:02:54.036Z,645.78
2023-02-14T11:05:28.458Z,651.25
2023-02-14T11:07:56.457Z,651.50
2023-02-14T11:10:27.221Z,647.17
2023-02-14T11:12:54.065Z,653.38
2023-02-14T11:15:27.687Z,653.77
2023-02-14T11:18:25.273Z,646.72
2023-02-14T11:21:06.964Z,656.50
2023-02-14T11:23:36.783Z,648.93
2023-02-14T11:26:24.958Z,652.42
2023-02-14T11:28:58.186Z,651.22
2023-02-14T11:31:35.875Z,658.53
2023-02-14T11:34:06.296Z,657.58
2023-02-14T11:36:40.929Z,667.38
2023-02-14T11:39:24.451Z,665.60
2023-02-14T11:41:58.079Z,660.33
2023-02-14T11:44:27.723Z,668.60
2023-02-14T11:46:56.822Z,670.55
2023-02-14T11:49:34.946Z,667.97
2023-02-14T11:52:11.671Z,667.97
2023-02-14T11:54:41.062Z,662.22
2023-02-14T11:57:21.686Z,666.30
2023-02-14T11:59:53.235Z,663.85
2023-02-14T12:02:40.461Z,661.53
2023-02-14T12:05:33.633Z,669.63
2023-02-14T12:08:03.216Z,669.22
2023-02-14T12:10:35.214Z,670.78
2023-02-14T12:13:07.692Z,665.63
2023-02-14T12:15:52.831Z,673.80
2023-02-14T12:18:25.157Z,668.63
2023-02-14T12:21:12.835Z,668.28
2023-02-14T12:23:52.170Z,676.65
2023-02-14T12:26:21.986Z,680.30
2023-02-14T12:28:58.132Z,681.97
2023-02-14T12:31:25.459Z,682.17
2023-02-14T12:33:52.413Z,678.15
2023-02-14T12:36:49.482Z,683.05
2023-02-14T12:39:31.094Z,683.10
2023-02-14T12:42:26.044Z,683.08
2023-02-14T12:45:08.336Z,689.67
2023-02-14T12:47:40.721Z,691.42
2023-02-14T12:50:22.324Z,688.28
2023-02-14T12:53:05.671Z,701.10
2023-02-14T12:55:41.142Z,697.83
2023-02-14T12:58:29.710Z,701.03
2023-02-14T13:01:08.484Z,695.30
2023-02-14T13:04:13.532Z,703.22
2023-02-14T13:06:56.891Z,707.88
2023-02-14T13:09:29.704Z,703.47
2023-02-14T13:12:27.698Z,706.78
2023-02-14T13:15:16.971Z,711.88
2023-02-14T13:17:50.824Z,708.55
2023-02-14T13:20:28.540Z,714.20
2023-02-14T13:22:57.328Z,711.22
2023-02-14T13:25:23.983Z,711.15
2023-02-14T13:27:51.219Z,708.60
2023-02-14T13:30:21.835Z,713.85
2023-02-14T13:32:51.170Z,718.60
2023-02-14T13:35:21.521Z,718.47
2023-02-14T13:38:00.055Z,716.88
2023-02-14T13:40:28.374Z,713.10
2023-02-14T13:42:59.534Z,722.15
2023-02-14T13:45:32.039Z,725.08
2023-02-14T13:48:19.596Z,728.20
2023-02-14T13:50:54.771Z,720.05
2023-02-14T13:53:43.390Z,717.50
2023-02-14T13:56:13.154Z,726.67
2023-02-14T13:58:56.081Z,727.47
2023-02-14T14:01:32.405Z,724.25
2023-02-14T14:04:01.777Z,726.85
2023-02-14T14:06:28.899Z,725.03
2023-02-14T14:08:57.099Z,725.20
2023-02-14T14:11:23.706Z,722.15
2023-02-14T14:14:01.636Z,727.42
2023-02-14T14:16:35.143Z,722.05
2023-02-14T14:19:09.364Z,719.33
2023-02-14T14:21:41.666Z,715.72
2023-02-14T14:24:22.865Z,703.45
2023-02-14T14:27:22.640Z,715.47
2023-02-14T14:30:07.477Z,711.05
2023-02-14T14:32:36.635Z,730.10
2023-02-14T14:35:16.584Z,709.95
2023-02-14T14:37:52.617Z,714.47
2023-02-14T14:40:29.964Z,718.33
2023-02-14T14:43:09.828Z,716.92
2023-02-14T14:45:36.484Z,713.15
2023-02-14T14:48:10.196Z,718.13
2023-02-14T14:50:36.966Z,715.53
2023-02-14T14:53:09.368Z,713.73
2023-02-14T14:55:39.358Z,718.70
2023-02-14T14:58:10.854Z,713.47
2023-02-14T15:00:42.388Z,711.25
2023-02-14T15:03:12.117Z,717.10
2023-02-14T15:05:47.942Z,725.40
2023-02-14T15:08:30.787Z,716.97
2023-02-14T15:11:02.070Z,709.72
2023-02-14T15:13:49.390Z,712.40
2023-02-14T15:16:48.419Z,714.55
2023-02-14T15:19:38.631Z,713.95
2023-02-14T15:22:07.764Z,707.67
2023-02-14T15:24:38.232Z,711.77
2023-02-14T15:27:05.225Z,705.97
2023-02-14T15:29:33.264Z,703.28
2023-02-14T15:32:04.201Z,709.58
2023-02-14T15:34:35.997Z,710.00
2023-02-14T15:37:06.255Z,701.42
2023-02-14T15:39:37.769Z,707.88
2023-02-14T15:42:05.931Z,711.87
2023-02-14T15:44:32.955Z,711.20
2023-02-14T15:47:03.740Z,707.03
2023-02-14T15:49:34.858Z,711.05
2023-02-14T15:52:04.434Z,705.78
2023-02-14T15:54:31.201Z,713.40
2023-02-14T15:56:58.783Z,704.28
2023-02-14T15:59:30.876Z,713.40
2023-02-14T16:02:14.859Z,714.58
2023-02-14T16:04:41.654Z,705.88
2023-02-14T16:07:28.102Z,700.92
2023-02-14T16:10:33.306Z,693.58
2023-02-14T16:13:17.531Z,708.70
2023-02-14T16:16:02.382Z,706.53
2023-02-14T16:18:41.078Z,705.37
2023-02-14T16:21:18.217Z,706.28
2023-02-14T16:24:06.793Z,711.10
2023-02-14T16:26:44.215Z,698.30
2023-02-14T16:29:16.327Z,701.15
2023-02-14T16:32:16.231Z,698.95
2023-02-14T16:34:43.444Z,684.93
2023-02-14T16:37:23.881Z,692.78
2023-02-14T16:39:52.881Z,684.78
2023-02-14T16:42:19.701Z,674.17
2023-02-14T16:44:47.335Z,681.25
2023-02-14T16:47:15.656Z,683.40
2023-02-14T16:49:42.351Z,683.42
2023-02-14T16:52:18.419Z,677.83
2023-02-14T16:54:45.453Z,674.22
2023-02-14T16:57:23.788Z,678.15
2023-02-14T16:59:50.957Z,668.88
2023-02-14T17:02:19.013Z,679.40
2023-02-14T17:04:45.772Z,674.73
2023-02-14T17:07:14.237Z,672.55
2023-02-14T17:09:47.573Z,672.70
2023-02-14T17:12:20.955Z,675.25
2023-02-14T17:14:51.595Z,678.67
2023-02-14T17:17:18.564Z,676.08
2023-02-14T17:19:45.382Z,662.58
2023-02-14T17:22:13.580Z,667.80
2023-02-14T17:24:41.088Z,673.25
2023-02-14T17:27:08.515Z,681.03
2023-02-14T17:29:35.166Z,670.92
2023-02-14T17:32:01.944Z,666.00
2023-02-14T17:34:32.243Z,664.33
2023-02-14T17:36:59.554Z,665.63
2023-02-14T17:39:26.308Z,656.57
2023-02-14T17:41:53.165Z,666.67
2023-02-14T17:44:19.803Z,661.47
2023-02-14T17:46:46.561Z,658.23
2023-02-14T17:49:13.237Z,661.28
2023-02-14T17:51:39.911Z,663.03
2023-02-14T17:54:06.545Z,663.22
2023-02-14T17:56:33.187Z,658.20
2023-02-14T17:58:59.956Z,655.10
2023-02-14T18:01:31.523Z,653.45
2023-02-14T18:03:58.517Z,657.33
2023-02-14T18:06:26.600Z,658.50
2023-02-14T18:08:56.648Z,652.53
2023-02-14T18:11:26.449Z,651.30
2023-02-14T18:13:55.132Z,646.25
2023-02-14T18:16:22.318Z,648.42
2023-02-14T18:18:48.959Z,651.00
2023-02-14T18:21:17.072Z,650.35
2023-02-14T18:23:43.800Z,650.70
2023-02-14T18:26:13.156Z,651.13
2023-02-14T18:28:40.238Z,647.72
2023-02-14T18:31:13.468Z,645.25
2023-02-14T18:33:40.678Z,645.25
2023-02-14T18:36:11.962Z,648.35
2023-02-14T18:38:42.650Z,643.25
2023-02-14T18:41:11.825Z,647.85
2023-02-14T18:43:40.941Z,643.13
2023-02-14T18:46:29.791Z,644.10
2023-02-14T18:48:57.621Z,636.60
2023-02-14T18:51:30.320Z,639.67
2023-02-14T18:53:58.914Z,639.40
2023-02-14T18:56:28.913Z,634.58
2023-02-14T18:59:01.337Z,642.22
2023-02-14T19:01:36.654Z,636.05
2023-02-14T19:04:05.943Z,639.47
2023-02-14T19:06:33.963Z,638.53
2023-02-14T19:09:01.729Z,638.58
2023-02-14T19:11:31.562Z,635.25
2023-02-14T19:14:00.756Z,639.33
2023-02-14T19:16:30.772Z,632.42
2023-02-14T19:18:59.045Z,632.83
2023-02-14T19:21:30.397Z,641.40
2023-02-14T19:23:58.012Z,632.22
2023-02-14T19:26:32.642Z,640.35
2023-02-14T19:29:01.689Z,628.17
2023-02-14T19:31:28.903Z,634.30
2023-02-14T19:33:55.662Z,642.90
2023-02-14T19:36:23.671Z,632.47
2023-02-14T19:38:52.753Z,631.35
2023-02-14T19:41:27.860Z,623.10
2023-02-14T19:43:58.918Z,630.38
2023-02-14T19:46:27.971Z,629.55
2023-02-14T19:48:56.638Z,616.17
2023-02-14T19:51:25.753Z,625.13
2023-02-14T19:53:53.929Z,623.90
2023-02-14T19:56:29.296Z,637.10
2023-02-14T19:58:56.534Z,629.85
2023-02-14T20:01:26.890Z,621.53
2023-02-14T20:03:53.845Z,624.50
2023-02-14T20:06:21.929Z,625.35
2023-02-14T20:08:48.892Z,642.42
2023-02-14T20:11:31.978Z,639.35
2023-02-14T20:13:59.574Z,628.22
2023-02-14T20:16:28.657Z,695.15
2023-02-14T20:18:55.954Z,645.63
2023-02-14T20:21:25.506Z,648.28
2023-02-14T20:23:52.392Z,631.25
2023-02-14T20:26:19.134Z,622.22
2023-02-14T20:28:45.900Z,632.53
2023-02-14T20:31:15.390Z,626.45
2023-02-14T20:33:42.196Z,624.22
2023-02-14T20:36:09.617Z,619.17
2023-02-14T20:38:36.272Z,621.33
2023-02-14T20:41:11.168Z,613.97
2023-02-14T20:43:38.792Z,623.25
2023-02-14T20:46:07.442Z,622.65
2023-02-14T20:48:35.299Z,632.15
2023-02-14T20:51:21.515Z,626.50
2023-02-14T20:53:48.305Z,640.47
2023-02-14T20:56:15.889Z,616.70
2023-02-14T20:58:43.151Z,620.53
2023-02-14T21:01:14.619Z,630.75
2023-02-14T21:03:43.333Z,625.72
2023-02-14T21:06:13.978Z,625.85
2023-02-14T21:08:42.413Z,640.13
2023-02-14T21:11:10.672Z,635.03
2023-02-14T21:13:37.560Z,632.72
2023-02-14T21:16:12.375Z,621.17
2023-02-14T21:18:39.155Z,626.10
2023-02-14T21:21:07.801Z,617.35
2023-02-14T21:23:34.523Z,620.53
2023-02-14T21:26:01.129Z,611.33
2023-02-14T21:28:27.828Z,648.25
2023-02-14T21:31:06.132Z,619.22
2023-02-14T21:33:33.013Z,622.05
2023-02-14T21:36:14.006Z,621.25
2023-02-14T21:38:41.161Z,618.85
2023-02-14T21:41:12.547Z,620.93
2023-02-14T21:43:42.308Z,616.20
2023-02-14T21:46:14.573Z,610.10
2023-02-14T21:49:00.237Z,627.85
2023-02-14T21:51:30.271Z,626.13
2023-02-14T21:53:57.322Z,619.65
2023-02-14T21:56:24.046Z,612.88
2023-02-14T21:58:52.869Z,613.78
2023-02-14T22:01:22.634Z,613.88
2023-02-14T22:03:49.756Z,621.92
2023-02-14T22:06:16.958Z,609.38
2023-02-14T22:08:43.845Z,621.15
2023-02-14T22:11:13.639Z,623.75
2023-02-14T22:13:42.715Z,629.03
2023-02-14T22:16:14.797Z,633.90
2023-02-14T22:18:42.208Z,623.80
2023-02-14T22:21:16.374Z,618.53
2023-02-14T22:23:43.278Z,625.45
2023-02-14T22:26:15.635Z,616.30
2023-02-14T22:28:43.918Z,622.95
2023-02-14T22:31:11.311Z,622.15
2023-02-14T22:33:38.659Z,627.63
2023-02-14T22:36:06.869Z,627.00
2023-02-14T22:38:34.136Z,619.70
2023-02-14T22:41:09.431Z,622.45
2023-02-14T22:43:37.406Z,629.03
2023-02-14T22:46:06.562Z,625.30
2023-02-14T22:48:35.102Z,615.90
2023-02-14T22:51:22.704Z,611.42
2023-02-14T22:53:51.255Z,619.85
2023-02-14T22:56:24.381Z,611.00
2023-02-14T22:58:59.467Z,613.17
2023-02-14T23:01:26.951Z,623.40
2023-02-14T23:03:58.333Z,612.90
2023-02-14T23:06:26.973Z,629.88
2023-02-14T23:08:54.698Z,624.55
2023-02-14T23:11:23.708Z,614.88
2023-02-14T23:14:08.978Z,619.80
2023-02-14T23:16:54.384Z,619.00
2023-02-14T23:19:45.434Z,622.20
2023-02-14T23:22:16.170Z,617.17
2023-02-14T23:24:42.967Z,620.00
2023-02-14T23:27:10.688Z,629.08
2023-02-14T23:29:37.558Z,656.92
2023-02-14T23:32:08.375Z,654.17
2023-02-14T23:34:37.745Z,642.80
2023-02-14T23:37:04.840Z,636.13
2023-02-14T23:39:36.622Z,616.22
2023-02-14T23:42:08.681Z,631.17
2023-02-14T23:44:35.768Z,635.85
2023-02-14T23:47:04.976Z,638.63
2023-02-14T23:49:33.320Z,648.58
2023-02-14T23:52:00.170Z,632.13
2023-02-14T23:54:26.911Z,633.92
2023-02-14T23:56:54.766Z,620.07
2023-02-14T23:59:22.178Z,618.58
